createdAt,value
2023-04-19T00:02:19.723Z,76.34
2023-04-19T00:04:48.467Z,76.07
2023-04-19T00:07:17.499Z,76.19
2023-04-19T00:09:44.942Z,76.15
2023-04-19T00:12:12.890Z,76.40
2023-04-19T00:14:40.094Z,76.25
2023-04-19T00:17:07.395Z,76.49
2023-04-19T00:19:35.123Z,76.15
2023-04-19T00:22:02.332Z,76.15
2023-04-19T00:24:29.615Z,76.42
2023-04-19T00:26:58.031Z,76.26
2023-04-19T00:29:26.153Z,76.26
2023-04-19T00:31:53.433Z,76.41
2023-04-19T00:34:20.950Z,76.52
2023-04-19T00:36:48.276Z,76.51
2023-04-19T00:39:16.170Z,76.50
2023-04-19T00:41:43.736Z,76.59
2023-04-19T00:44:11.560Z,76.46
2023-04-19T00:46:39.321Z,76.45
2023-04-19T00:49:07.655Z,76.52
2023-04-19T00:51:35.864Z,76.65
2023-04-19T00:54:04.613Z,76.66
2023-04-19T00:56:34.801Z,76.48
2023-04-19T00:59:02.311Z,76.64
2023-04-19T01:04:18.841Z,76.53
2023-04-19T01:06:46.455Z,76.27
2023-04-19T01:09:13.616Z,76.51
2023-04-19T01:11:43.158Z,76.52
2023-04-19T01:14:11.153Z,76.44
2023-04-19T01:16:39.411Z,76.55
2023-04-19T01:19:07.487Z,76.55
2023-04-19T01:21:40.003Z,76.33
2023-04-19T01:24:08.603Z,76.31
2023-04-19T01:26:35.805Z,76.44
2023-04-19T01:29:03.282Z,76.23
2023-04-19T01:31:30.989Z,76.18
2023-04-19T01:33:58.786Z,76.32
2023-04-19T01:36:26.640Z,76.39
2023-04-19T01:38:54.195Z,76.24
2023-04-19T01:41:22.983Z,75.91
2023-04-19T01:43:50.143Z,76.00
2023-04-19T01:46:18.662Z,76.06
2023-04-19T01:48:46.139Z,76.20
2023-04-19T01:51:13.330Z,76.03
2023-04-19T01:53:40.857Z,76.19
2023-04-19T01:56:08.758Z,76.11
2023-04-19T01:58:36.045Z,76.10
2023-04-19T02:01:03.661Z,75.99
2023-04-19T02:03:31.854Z,76.00
2023-04-19T02:05:59.059Z,76.04
2023-04-19T02:08:26.524Z,76.17
2023-04-19T02:10:53.869Z,75.97
2023-04-19T02:13:21.206Z,75.88
2023-04-19T02:15:48.461Z,76.09
2023-04-19T02:18:17.953Z,76.33
2023-04-19T02:20:45.150Z,76.31
2023-04-19T02:23:13.458Z,76.35
2023-04-19T02:25:41.085Z,76.42
2023-04-19T02:28:08.310Z,76.41
2023-04-19T02:30:37.761Z,76.62
2023-04-19T02:33:05.319Z,76.42
2023-04-19T02:35:32.651Z,76.45
2023-04-19T02:38:02.062Z,76.65
2023-04-19T02:40:29.308Z,76.59
2023-04-19T02:42:56.603Z,76.77
2023-04-19T02:45:24.098Z,77.09
2023-04-19T02:47:51.408Z,76.96
2023-04-19T02:50:18.946Z,77.26
2023-04-19T02:52:46.179Z,77.12
2023-04-19T02:55:13.938Z,77.30
2023-04-19T02:57:41.642Z,77.45
2023-04-19T03:00:09.581Z,77.48
2023-04-19T03:02:37.639Z,77.49
2023-04-19T03:05:04.992Z,77.55
2023-04-19T03:07:32.843Z,77.71
2023-04-19T03:10:00.068Z,77.58
2023-04-19T03:12:27.360Z,77.61
2023-04-19T03:14:55.180Z,77.65
2023-04-19T03:17:22.428Z,77.64
2023-04-19T03:19:49.660Z,77.96
2023-04-19T03:22:17.683Z,77.85
2023-04-19T03:24:44.869Z,77.90
2023-04-19T03:27:12.085Z,78.06
2023-04-19T03:29:39.919Z,78.11
2023-04-19T03:32:08.248Z,78.15
2023-04-19T03:34:35.413Z,78.17
2023-04-19T03:37:02.714Z,78.37
2023-04-19T03:39:30.031Z,78.29
2023-04-19T03:41:57.296Z,78.22
2023-04-19T03:44:24.538Z,78.11
2023-04-19T03:46:51.739Z,78.26
2023-04-19T03:49:19.424Z,78.51
2023-04-19T03:51:46.794Z,78.40
2023-04-19T03:54:14.168Z,78.41
2023-04-19T03:56:41.596Z,78.69
2023-04-19T03:59:10.248Z,78.43
2023-04-19T04:01:42.603Z,78.50
2023-04-19T04:04:10.440Z,78.68
2023-04-19T04:06:38.755Z,78.59
2023-04-19T04:09:06.090Z,78.99
2023-04-19T04:11:33.718Z,78.61
2023-04-19T04:14:01.262Z,79.02
2023-04-19T04:16:28.642Z,78.85
2023-04-19T04:18:55.895Z,78.99
2023-04-19T04:21:25.025Z,78.92
2023-04-19T04:23:53.738Z,79.03
2023-04-19T04:26:22.310Z,79.14
2023-04-19T04:28:49.807Z,79.25
2023-04-19T04:31:18.703Z,79.16
2023-04-19T04:33:46.500Z,79.26
2023-04-19T04:36:14.660Z,79.19
2023-04-19T04:38:42.100Z,79.31
2023-04-19T04:41:09.652Z,79.52
2023-04-19T04:43:37.232Z,79.38
2023-04-19T04:46:04.648Z,79.34
2023-04-19T04:48:32.457Z,79.47
2023-04-19T04:51:00.380Z,79.67
2023-04-19T04:53:28.141Z,79.75
2023-04-19T04:55:56.072Z,79.86
2023-04-19T04:58:23.359Z,79.85
2023-04-19T05:00:51.771Z,80.04
2023-04-19T05:03:20.590Z,79.97
2023-04-19T05:05:48.185Z,80.13
2023-04-19T05:08:15.483Z,80.16
2023-04-19T05:10:43.513Z,80.40
2023-04-19T05:13:11.117Z,80.22
2023-04-19T05:15:38.662Z,80.27
2023-04-19T05:18:06.616Z,80.31
2023-04-19T05:20:37.159Z,80.34
2023-04-19T05:23:04.422Z,80.58
2023-04-19T05:25:31.667Z,80.50
2023-04-19T05:27:59.027Z,80.55
2023-04-19T05:30:26.341Z,80.74
2023-04-19T05:32:54.077Z,80.90
2023-04-19T05:35:22.309Z,80.63
2023-04-19T05:37:49.485Z,80.07
2023-04-19T05:40:17.060Z,80.20
2023-04-19T05:42:44.451Z,80.07
2023-04-19T05:45:12.184Z,80.07
2023-04-19T05:47:40.136Z,80.26
2023-04-19T05:50:08.197Z,80.25
2023-04-19T05:52:35.537Z,80.32
2023-04-19T05:55:02.796Z,80.24
2023-04-19T05:57:30.288Z,80.07
2023-04-19T05:59:57.640Z,79.92
2023-04-19T06:02:25.049Z,80.09
2023-04-19T06:04:53.201Z,79.99
2023-04-19T06:07:30.806Z,80.05
2023-04-19T06:10:01.170Z,80.15
2023-04-19T06:12:28.521Z,80.14
2023-04-19T06:14:55.768Z,80.25
2023-04-19T06:17:25.964Z,80.00
2023-04-19T06:19:54.294Z,79.93
2023-04-19T06:22:22.078Z,80.05
2023-04-19T06:24:49.874Z,79.87
2023-04-19T06:27:17.355Z,79.93
2023-04-19T06:29:44.584Z,80.06
2023-04-19T06:32:12.747Z,80.17
2023-04-19T06:34:40.070Z,80.21
2023-04-19T06:37:08.067Z,80.04
2023-04-19T06:39:36.158Z,79.79
2023-04-19T06:42:04.233Z,79.95
2023-04-19T06:44:31.495Z,79.81
2023-04-19T06:46:58.693Z,80.06
2023-04-19T06:49:25.907Z,80.20
2023-04-19T06:51:54.130Z,80.28
2023-04-19T06:54:22.669Z,80.24
2023-04-19T06:56:51.024Z,80.13
2023-04-19T06:59:21.293Z,80.07
2023-04-19T07:01:49.826Z,80.03
2023-04-19T07:04:18.385Z,80.23
2023-04-19T07:06:50.378Z,79.95
2023-04-19T07:09:18.044Z,79.27
2023-04-19T07:11:45.229Z,79.41
2023-04-19T07:14:12.794Z,79.45
2023-04-19T07:16:40.229Z,79.33
2023-04-19T07:19:07.691Z,79.48
2023-04-19T07:21:35.621Z,79.52
2023-04-19T07:24:02.920Z,79.60
2023-04-19T07:26:30.257Z,79.51
2023-04-19T07:28:58.765Z,79.53
2023-04-19T07:31:28.132Z,79.60
2023-04-19T07:33:55.629Z,79.50
2023-04-19T07:36:23.249Z,79.58
2023-04-19T07:38:51.055Z,79.54
2023-04-19T07:41:18.841Z,79.44
2023-04-19T07:43:46.410Z,79.38
2023-04-19T07:46:16.971Z,79.35
2023-04-19T07:48:44.183Z,79.42
2023-04-19T07:51:12.761Z,79.36
2023-04-19T07:53:42.673Z,79.46
2023-04-19T07:56:12.749Z,79.21
2023-04-19T07:58:42.324Z,79.66
2023-04-19T08:01:10.886Z,79.69
2023-04-19T08:03:45.737Z,79.70
2023-04-19T08:06:18.307Z,79.72
2023-04-19T08:08:50.073Z,79.70
2023-04-19T08:11:25.352Z,79.51
2023-04-19T08:14:06.958Z,79.74
2023-04-19T08:19:18.744Z,79.78
2023-04-19T08:21:46.156Z,79.72
2023-04-19T08:24:14.173Z,79.81
2023-04-19T08:26:41.614Z,79.89
2023-04-19T08:29:09.029Z,79.92
2023-04-19T08:31:37.877Z,79.99
2023-04-19T08:34:05.088Z,79.90
2023-04-19T08:36:37.507Z,80.15
2023-04-19T08:39:17.614Z,80.08
2023-04-19T08:42:04.892Z,80.17
2023-04-19T08:44:48.998Z,79.87
2023-04-19T08:47:29.635Z,79.76
2023-04-19T08:52:39.131Z,79.34
2023-04-19T08:55:12.455Z,79.23
2023-04-19T08:57:39.956Z,79.32
2023-04-19T09:00:12.007Z,79.54
2023-04-19T09:02:50.391Z,79.15
2023-04-19T09:05:19.325Z,79.38
2023-04-19T09:07:48.249Z,79.60
2023-04-19T09:10:20.812Z,79.41
2023-04-19T09:13:05.752Z,79.46
2023-04-19T09:15:42.085Z,79.29
2023-04-19T09:18:10.721Z,79.28
2023-04-19T09:20:44.598Z,79.28
2023-04-19T09:23:14.512Z,79.03
2023-04-19T09:26:22.055Z,79.07
2023-04-19T09:29:02.804Z,78.78
2023-04-19T09:31:50.225Z,79.06
2023-04-19T09:34:20.022Z,79.29
2023-04-19T09:36:47.366Z,79.24
2023-04-19T09:39:15.357Z,78.88
2023-04-19T09:41:54.311Z,78.93
2023-04-19T09:44:56.100Z,79.01
2023-04-19T09:47:27.558Z,78.69
2023-04-19T09:50:23.613Z,78.57
2023-04-19T09:52:53.882Z,78.34
2023-04-19T09:55:27.774Z,78.51
2023-04-19T09:57:56.700Z,78.53
2023-04-19T10:00:24.197Z,78.42
2023-04-19T10:02:58.832Z,78.56
2023-04-19T10:05:26.832Z,78.51
2023-04-19T10:07:59.967Z,79.02
2023-04-19T10:15:49.313Z,78.49
2023-04-19T10:18:19.179Z,78.50
2023-04-19T10:20:55.321Z,78.56
2023-04-19T10:23:23.520Z,78.77
2023-04-19T10:25:58.158Z,79.07
2023-04-19T10:28:25.644Z,78.96
2023-04-19T10:31:01.868Z,78.82
2023-04-19T10:33:31.703Z,78.95
2023-04-19T10:36:00.216Z,79.16
2023-04-19T10:38:39.338Z,79.04
2023-04-19T10:41:15.493Z,78.90
2023-04-19T10:43:48.743Z,78.71
2023-04-19T10:46:36.614Z,78.95
2023-04-19T10:49:08.767Z,79.10
2023-04-19T10:51:39.201Z,79.09
2023-04-19T10:54:11.118Z,79.09
2023-04-19T10:56:41.567Z,79.24
2023-04-19T10:59:12.516Z,79.05
2023-04-19T11:01:50.399Z,79.20
2023-04-19T11:04:20.823Z,79.02
2023-04-19T11:06:54.085Z,78.91
2023-04-19T11:09:25.274Z,78.80
2023-04-19T11:12:00.267Z,79.03
2023-04-19T11:14:30.806Z,79.03
2023-04-19T11:16:58.185Z,79.33
2023-04-19T11:19:25.620Z,79.20
2023-04-19T11:21:53.435Z,78.81
2023-04-19T11:24:21.644Z,78.77
2023-04-19T11:26:49.132Z,79.22
2023-04-19T11:29:16.947Z,78.97
2023-04-19T11:31:46.943Z,79.14
2023-04-19T11:34:14.714Z,79.11
2023-04-19T11:36:51.222Z,79.04
2023-04-19T11:39:19.098Z,79.09
2023-04-19T11:41:48.128Z,79.26
2023-04-19T11:44:18.678Z,79.11
2023-04-19T11:47:06.699Z,79.31
2023-04-19T11:49:35.171Z,79.41
2023-04-19T11:52:06.624Z,79.10
2023-04-19T11:54:34.455Z,79.12
2023-04-19T11:57:06.872Z,79.15
2023-04-19T11:59:36.550Z,79.27
2023-04-19T12:02:12.611Z,79.13
2023-04-19T12:04:42.111Z,79.42
2023-04-19T12:07:11.672Z,79.32
2023-04-19T12:09:40.284Z,79.25
2023-04-19T12:12:08.016Z,79.17
2023-04-19T12:14:35.914Z,79.20
2023-04-19T12:17:14.131Z,79.26
2023-04-19T12:19:47.204Z,79.11
2023-04-19T12:22:17.295Z,79.23
2023-04-19T12:24:44.471Z,79.23
2023-04-19T12:27:12.009Z,79.18
2023-04-19T12:29:40.048Z,79.21
2023-04-19T12:32:07.390Z,79.16
2023-04-19T12:34:34.754Z,79.14
2023-04-19T12:37:03.792Z,79.39
2023-04-19T12:39:31.327Z,79.47
2023-04-19T12:41:58.540Z,79.42
2023-04-19T12:44:26.498Z,79.23
2023-04-19T12:46:57.958Z,79.18
2023-04-19T12:49:25.340Z,79.16
2023-04-19T12:54:20.397Z,79.16
2023-04-19T12:56:47.761Z,79.02
2023-04-19T12:59:16.083Z,79.03
2023-04-19T13:01:44.976Z,79.03
2023-04-19T13:04:12.514Z,79.00
2023-04-19T13:06:41.846Z,78.95
2023-04-19T13:11:39.289Z,79.07
2023-04-19T13:14:07.179Z,78.91
2023-04-19T13:16:34.417Z,78.82
2023-04-19T13:19:01.816Z,79.05
2023-04-19T13:21:29.800Z,79.28
2023-04-19T13:23:59.678Z,79.28
2023-04-19T13:26:27.296Z,79.41
2023-04-19T13:28:55.618Z,79.60
2023-04-19T13:31:22.894Z,79.34
2023-04-19T13:33:50.169Z,79.16
2023-04-19T13:36:17.942Z,78.90
2023-04-19T13:38:45.722Z,79.08
2023-04-19T13:41:13.703Z,78.88
2023-04-19T13:43:41.648Z,78.84
2023-04-19T13:46:08.838Z,78.87
2023-04-19T13:48:36.301Z,78.85
2023-04-19T13:51:03.556Z,78.78
2023-04-19T13:53:30.802Z,78.94
2023-04-19T13:55:58.695Z,79.03
2023-04-19T13:58:26.072Z,78.98
2023-04-19T14:00:54.498Z,78.98
2023-04-19T14:03:23.464Z,78.94
2023-04-19T14:05:51.258Z,79.22
2023-04-19T14:08:18.523Z,79.18
2023-04-19T14:10:46.470Z,78.93
2023-04-19T14:13:14.317Z,79.02
2023-04-19T14:15:41.571Z,79.21
2023-04-19T14:18:09.063Z,78.95
2023-04-19T14:20:36.907Z,79.19
2023-04-19T14:23:04.249Z,79.10
2023-04-19T14:25:31.873Z,79.26
2023-04-19T14:28:00.186Z,79.10
2023-04-19T14:30:28.446Z,79.01
2023-04-19T14:32:56.924Z,79.38
2023-04-19T14:35:24.242Z,79.33
2023-04-19T14:37:51.449Z,79.37
2023-04-19T14:40:20.388Z,79.30
2023-04-19T14:42:48.794Z,79.20
2023-04-19T14:45:16.257Z,79.46
2023-04-19T14:47:43.542Z,79.34
2023-04-19T14:50:11.658Z,79.46
2023-04-19T14:52:38.878Z,79.34
2023-04-19T14:55:06.443Z,79.30
2023-04-19T14:57:34.470Z,79.50
2023-04-19T15:00:02.563Z,79.38
2023-04-19T15:02:30.038Z,79.40
2023-04-19T15:04:58.055Z,79.48
2023-04-19T15:07:26.651Z,79.82
2023-04-19T15:09:54.041Z,79.72
2023-04-19T15:12:21.765Z,79.65
2023-04-19T15:14:49.000Z,79.54
2023-04-19T15:17:17.044Z,79.41
2023-04-19T15:19:47.281Z,79.21
2023-04-19T15:22:14.453Z,79.43
2023-04-19T15:24:41.822Z,79.46
2023-04-19T15:27:09.519Z,79.51
2023-04-19T15:29:36.821Z,79.34
2023-04-19T15:32:05.059Z,79.62
2023-04-19T15:34:33.077Z,79.63
2023-04-19T15:37:00.336Z,79.82
2023-04-19T15:39:27.698Z,79.89
2023-04-19T15:41:55.007Z,79.85
2023-04-19T15:44:22.181Z,79.85
2023-04-19T15:46:49.353Z,79.94
2023-04-19T15:49:17.546Z,79.94
2023-04-19T15:51:44.996Z,79.59
2023-04-19T15:54:14.863Z,79.90
2023-04-19T15:56:43.285Z,79.78
2023-04-19T15:59:10.555Z,79.56
2023-04-19T16:01:37.952Z,79.88
2023-04-19T16:04:05.654Z,79.74
2023-04-19T16:06:33.289Z,79.38
2023-04-19T16:09:00.628Z,79.42
2023-04-19T16:11:28.498Z,79.62
2023-04-19T16:13:55.702Z,79.46
2023-04-19T16:16:23.032Z,79.37
2023-04-19T16:18:50.842Z,79.78
2023-04-19T16:21:18.109Z,79.33
2023-04-19T16:23:45.312Z,79.41
2023-04-19T16:26:13.428Z,79.41
2023-04-19T16:28:40.940Z,79.51
2023-04-19T16:31:08.243Z,79.41
2023-04-19T16:33:36.226Z,79.36
2023-04-19T16:36:03.606Z,79.22
2023-04-19T16:38:30.934Z,79.55
2023-04-19T16:41:00.052Z,79.49
2023-04-19T16:43:27.363Z,79.38
2023-04-19T16:45:54.789Z,79.59
2023-04-19T16:48:22.788Z,79.39
2023-04-19T16:50:50.149Z,79.44
2023-04-19T16:53:17.367Z,79.36
2023-04-19T16:55:45.488Z,79.17
2023-04-19T16:58:12.801Z,79.03
2023-04-19T17:00:40.708Z,79.24
2023-04-19T17:03:10.282Z,78.96
2023-04-19T17:05:37.798Z,79.10
2023-04-19T17:08:05.725Z,79.34
2023-04-19T17:10:32.915Z,79.21
2023-04-19T17:13:00.185Z,79.04
2023-04-19T17:15:27.812Z,79.12
2023-04-19T17:17:57.137Z,79.19
2023-04-19T17:20:25.095Z,78.96
2023-04-19T17:22:52.932Z,79.13
2023-04-19T17:25:22.343Z,79.04
2023-04-19T17:27:51.446Z,78.86
2023-04-19T17:30:19.096Z,78.86
2023-04-19T17:32:46.753Z,78.96
2023-04-19T17:35:15.719Z,78.75
2023-04-19T17:37:44.202Z,79.03
2023-04-19T17:40:12.704Z,78.85
2023-04-19T17:42:40.868Z,78.69
2023-04-19T17:45:12.077Z,78.88
2023-04-19T17:47:40.611Z,78.90
2023-04-19T17:50:11.311Z,78.83
2023-04-19T17:52:43.688Z,78.89
2023-04-19T17:55:25.719Z,78.75
2023-04-19T17:57:57.526Z,78.87
2023-04-19T18:00:26.722Z,79.04
2023-04-19T18:02:55.645Z,78.76
2023-04-19T18:05:25.620Z,78.79
2023-04-19T18:07:54.194Z,78.82
2023-04-19T18:10:24.602Z,79.23
2023-04-19T18:12:53.242Z,78.98
2023-04-19T18:15:21.651Z,78.97
2023-04-19T18:17:50.294Z,79.03
2023-04-19T18:20:20.274Z,79.30
2023-04-19T18:22:52.698Z,78.99
2023-04-19T18:25:21.052Z,79.12
2023-04-19T18:27:51.417Z,79.06
2023-04-19T18:30:19.355Z,79.07
2023-04-19T18:32:48.009Z,79.12
2023-04-19T18:35:16.221Z,79.27
2023-04-19T18:37:46.513Z,79.20
2023-04-19T18:40:15.044Z,79.39
2023-04-19T18:42:43.148Z,79.45
2023-04-19T18:45:11.959Z,79.50
2023-04-19T18:47:40.526Z,79.65
2023-04-19T18:50:09.174Z,79.66
2023-04-19T18:52:38.315Z,79.47
2023-04-19T18:55:07.234Z,79.74
2023-04-19T18:57:37.659Z,79.60
2023-04-19T19:00:11.608Z,79.63
2023-04-19T19:02:40.882Z,79.76
2023-04-19T19:05:13.739Z,79.82
2023-04-19T19:07:43.398Z,79.79
2023-04-19T19:10:19.256Z,79.88
2023-04-19T19:12:52.034Z,79.97
2023-04-19T19:15:20.416Z,80.26
2023-04-19T19:17:50.084Z,80.13
2023-04-19T19:20:24.626Z,80.09
2023-04-19T19:22:54.746Z,80.16
2023-04-19T19:25:23.589Z,80.29
2023-04-19T19:30:29.133Z,80.25
2023-04-19T19:32:59.095Z,80.19
2023-04-19T19:35:27.742Z,80.32
2023-04-19T19:37:55.804Z,80.26
2023-04-19T19:40:23.858Z,80.07
2023-04-19T19:42:52.283Z,80.11
2023-04-19T19:45:20.764Z,80.16
2023-04-19T19:47:50.057Z,80.24
2023-04-19T19:52:53.979Z,80.26
2023-04-19T19:55:22.635Z,80.26
2023-04-19T20:00:42.502Z,80.33
2023-04-19T20:03:11.453Z,80.12
2023-04-19T20:05:40.356Z,80.14
2023-04-19T20:08:12.972Z,80.07
2023-04-19T20:10:42.837Z,79.95
2023-04-19T20:13:13.350Z,79.99
2023-04-19T20:15:42.394Z,79.93
2023-04-19T20:18:10.678Z,79.94
2023-04-19T20:20:40.056Z,79.98
2023-04-19T20:23:09.600Z,80.02
2023-04-19T20:25:39.835Z,79.85
2023-04-19T20:28:07.498Z,79.86
2023-04-19T20:30:36.011Z,80.02
2023-04-19T20:33:04.389Z,79.86
2023-04-19T20:35:35.688Z,79.83
2023-04-19T20:38:04.795Z,79.96
2023-04-19T20:40:34.164Z,79.93
2023-04-19T20:43:02.793Z,79.96
2023-04-19T20:45:35.629Z,80.09
2023-04-19T20:48:04.681Z,80.06
2023-04-19T20:50:32.261Z,80.16
2023-04-19T20:53:02.232Z,80.27
2023-04-19T20:55:30.566Z,80.23
2023-04-19T20:57:58.788Z,80.25
2023-04-19T21:00:26.661Z,80.09
2023-04-19T21:02:54.408Z,80.20
2023-04-19T21:05:22.284Z,80.14
2023-04-19T21:07:49.503Z,80.11
2023-04-19T21:10:18.294Z,80.35
2023-04-19T21:12:46.150Z,80.32
2023-04-19T21:15:13.371Z,80.29
2023-04-19T21:17:41.342Z,80.29
2023-04-19T21:20:12.734Z,80.32
2023-04-19T21:22:41.457Z,80.31
2023-04-19T21:25:09.889Z,80.45
2023-04-19T21:27:37.389Z,80.41
2023-04-19T21:30:06.485Z,80.42
2023-04-19T21:32:40.576Z,80.38
2023-04-19T21:35:08.650Z,80.53
2023-04-19T21:37:37.891Z,80.53
2023-04-19T21:40:06.402Z,80.61
2023-04-19T21:42:34.290Z,80.62
2023-04-19T21:45:01.733Z,80.57
2023-04-19T21:47:29.581Z,80.57
2023-04-19T21:49:57.186Z,80.57
2023-04-19T21:52:24.445Z,80.54
2023-04-19T21:54:52.240Z,80.59
2023-04-19T21:57:22.574Z,80.67
2023-04-19T21:59:49.777Z,80.74
2023-04-19T22:02:17.201Z,80.80
2023-04-19T22:04:45.056Z,80.77
2023-04-19T22:07:19.395Z,80.87
2023-04-19T22:09:47.029Z,80.91
2023-04-19T22:12:14.223Z,80.52
2023-04-19T22:14:42.407Z,80.78
2023-04-19T22:17:10.604Z,80.72
2023-04-19T22:19:38.393Z,80.75
2023-04-19T22:22:06.087Z,80.91
2023-04-19T22:24:35.821Z,80.91
2023-04-19T22:27:04.727Z,80.85
2023-04-19T22:29:32.661Z,80.63
2023-04-19T22:31:59.876Z,80.84
2023-04-19T22:34:27.061Z,81.02
2023-04-19T22:36:54.586Z,80.85
2023-04-19T22:39:21.972Z,81.02
2023-04-19T22:41:49.240Z,81.15
2023-04-19T22:44:17.068Z,81.07
2023-04-19T22:46:44.350Z,81.26
2023-04-19T22:49:11.897Z,81.31
2023-04-19T22:51:39.571Z,81.32
2023-04-19T22:54:06.793Z,81.40
2023-04-19T22:56:34.534Z,81.53
2023-04-19T22:59:01.734Z,81.39
2023-04-19T23:01:28.942Z,81.65
2023-04-19T23:03:56.413Z,81.63
2023-04-19T23:06:24.388Z,81.58
2023-04-19T23:08:52.589Z,81.52
2023-04-19T23:11:20.079Z,81.75
2023-04-19T23:13:48.091Z,81.78
2023-04-19T23:16:15.395Z,81.75
2023-04-19T23:18:42.748Z,81.79
2023-04-19T23:21:10.092Z,81.77
2023-04-19T23:23:38.481Z,81.91
2023-04-19T23:26:05.828Z,81.72
2023-04-19T23:28:33.781Z,81.81
2023-04-19T23:31:01.772Z,81.74
2023-04-19T23:33:29.196Z,81.89
2023-04-19T23:35:56.970Z,81.91
2023-04-19T23:38:24.359Z,82.00
2023-04-19T23:40:51.850Z,81.98
2023-04-19T23:43:19.683Z,82.02
2023-04-19T23:45:46.929Z,82.03
2023-04-19T23:48:14.205Z,82.10
2023-04-19T23:50:41.477Z,82.11
2023-04-19T23:53:08.833Z,82.23
2023-04-19T23:55:36.285Z,82.17
2023-04-19T23:58:04.114Z,82.19
